createdAt,value
2023-01-10T00:02:08.165Z,2.90
2023-01-10T00:04:31.826Z,2.95
2023-01-10T00:06:56.763Z,2.85
2023-01-10T00:09:20.474Z,2.83
2023-01-10T00:11:57.839Z,3.78
2023-01-10T00:14:21.759Z,3.67
2023-01-10T00:16:45.274Z,3.53
2023-01-10T00:19:10.554Z,3.67
2023-01-10T00:21:34.162Z,3.90
2023-01-10T00:24:00.374Z,4.13
2023-01-10T00:26:23.890Z,3.45
2023-01-10T00:28:47.504Z,3.63
2023-01-10T00:31:12.221Z,3.63
2023-01-10T00:33:36.888Z,3.60
2023-01-10T00:36:00.908Z,3.40
2023-01-10T00:38:24.546Z,3.88
2023-01-10T00:40:49.496Z,3.85
2023-01-10T00:43:30.647Z,3.90
2023-01-10T00:45:54.602Z,3.63
2023-01-10T00:48:18.859Z,3.40
2023-01-10T00:50:42.642Z,3.70
2023-01-10T00:53:06.246Z,3.80
2023-01-10T00:55:29.859Z,3.83
2023-01-10T00:57:54.757Z,4.20
2023-01-10T01:00:18.897Z,3.78
2023-01-10T01:02:42.468Z,3.58
2023-01-10T01:05:07.738Z,4.10
2023-01-10T01:07:31.387Z,4.10
2023-01-10T01:10:12.439Z,4.47
2023-01-10T01:12:36.088Z,4.00
2023-01-10T01:15:00.975Z,4.18
2023-01-10T01:17:24.637Z,4.20
2023-01-10T01:19:48.160Z,4.72
2023-01-10T01:22:12.381Z,4.30
2023-01-10T01:24:36.068Z,4.53
2023-01-10T01:26:59.644Z,4.85
2023-01-10T01:29:26.268Z,4.10
2023-01-10T01:31:55.040Z,5.03
2023-01-10T01:34:18.642Z,4.50
2023-01-10T01:36:42.324Z,4.75
2023-01-10T01:39:06.265Z,4.22
2023-01-10T01:41:47.340Z,4.60
2023-01-10T01:44:18.091Z,4.68
2023-01-10T01:46:43.395Z,4.90
2023-01-10T01:49:15.843Z,4.90
2023-01-10T01:51:39.753Z,4.18
2023-01-10T01:54:07.643Z,4.70
2023-01-10T01:56:37.638Z,4.70
2023-01-10T01:59:07.741Z,4.30
2023-01-10T02:01:32.790Z,5.10
2023-01-10T02:04:03.065Z,5.10
2023-01-10T02:06:28.128Z,4.65
2023-01-10T02:09:00.203Z,4.93
2023-01-10T02:11:23.887Z,4.22
2023-01-10T02:13:48.757Z,4.85
2023-01-10T02:16:14.714Z,4.68
2023-01-10T02:18:40.153Z,5.20
2023-01-10T02:21:38.598Z,4.63
2023-01-10T02:24:40.208Z,4.88
2023-01-10T02:27:19.839Z,5.00
2023-01-10T02:30:33.784Z,4.90
2023-01-10T02:33:05.427Z,5.20
2023-01-10T02:35:51.948Z,5.50
2023-01-10T02:38:26.442Z,5.20
2023-01-10T02:41:03.153Z,5.50
2023-01-10T02:43:32.868Z,5.57
2023-01-10T02:46:01.275Z,5.23
2023-01-10T02:48:26.331Z,4.95
2023-01-10T02:51:00.204Z,5.43
2023-01-10T02:53:28.567Z,4.80
2023-01-10T02:56:42.612Z,5.57
2023-01-10T02:59:36.782Z,4.35
2023-01-10T03:02:09.573Z,4.33
2023-01-10T03:04:47.807Z,4.90
2023-01-10T03:07:21.440Z,4.80
2023-01-10T03:09:56.122Z,4.67
2023-01-10T03:12:26.419Z,4.53
2023-01-10T03:14:51.878Z,4.60
2023-01-10T03:17:18.315Z,4.67
2023-01-10T03:19:48.442Z,5.03
2023-01-10T03:22:12.832Z,5.53
2023-01-10T03:24:42.130Z,5.80
2023-01-10T03:27:10.726Z,5.10
2023-01-10T03:29:42.497Z,5.45
2023-01-10T03:32:09.079Z,5.23
2023-01-10T03:34:33.421Z,5.40
2023-01-10T03:37:06.863Z,5.50
2023-01-10T03:39:36.655Z,5.43
2023-01-10T03:42:10.193Z,4.03
2023-01-10T03:44:44.459Z,5.27
2023-01-10T03:47:11.972Z,5.33
2023-01-10T03:49:39.810Z,6.03
2023-01-10T03:52:06.264Z,5.60
2023-01-10T03:54:30.234Z,5.10
2023-01-10T03:56:55.576Z,5.47
2023-01-10T03:59:20.966Z,5.53
2023-01-10T04:01:45.104Z,5.00
2023-01-10T04:04:08.701Z,5.18
2023-01-10T04:06:32.544Z,5.30
2023-01-10T04:08:57.498Z,5.37
2023-01-10T04:11:21.052Z,5.20
2023-01-10T04:13:44.568Z,5.13
2023-01-10T04:16:09.153Z,5.38
2023-01-10T04:18:32.672Z,5.43
2023-01-10T04:20:56.259Z,5.53
2023-01-10T04:23:19.761Z,5.70
2023-01-10T04:25:48.628Z,5.70
2023-01-10T04:28:12.176Z,5.80
2023-01-10T04:30:35.785Z,5.65
2023-01-10T04:32:59.368Z,5.25
2023-01-10T04:35:22.940Z,5.47
2023-01-10T04:37:46.517Z,5.70
2023-01-10T04:40:12.967Z,6.00
2023-01-10T04:42:38.004Z,6.00
2023-01-10T04:45:01.638Z,5.55
2023-01-10T04:47:25.151Z,6.28
2023-01-10T04:49:48.759Z,5.43
2023-01-10T04:52:12.636Z,6.32
2023-01-10T04:54:36.257Z,6.38
2023-01-10T04:56:59.808Z,6.22
2023-01-10T04:59:24.780Z,6.18
2023-01-10T05:01:48.488Z,6.07
2023-01-10T05:04:12.424Z,6.38
2023-01-10T05:06:36.106Z,6.87
2023-01-10T05:08:59.830Z,6.47
2023-01-10T05:11:23.385Z,7.33
2023-01-10T05:13:48.165Z,7.35
2023-01-10T05:16:13.237Z,7.17
2023-01-10T05:18:36.944Z,7.20
2023-01-10T05:21:04.384Z,6.97
2023-01-10T05:23:27.998Z,7.00
2023-01-10T05:25:51.571Z,6.97
2023-01-10T05:28:15.130Z,6.90
2023-01-10T05:30:38.658Z,7.30
2023-01-10T05:33:05.811Z,7.32
2023-01-10T05:35:29.341Z,7.30
2023-01-10T05:37:54.074Z,7.05
2023-01-10T05:40:18.066Z,7.65
2023-01-10T05:42:41.675Z,7.80
2023-01-10T05:45:06.109Z,7.55
2023-01-10T05:47:29.696Z,6.85
2023-01-10T05:49:54.664Z,7.00
2023-01-10T05:52:18.427Z,8.05
2023-01-10T05:54:42.159Z,6.82
2023-01-10T05:57:05.896Z,6.70
2023-01-10T05:59:29.446Z,7.37
2023-01-10T06:01:53.108Z,7.80
2023-01-10T06:04:16.850Z,8.00
2023-01-10T06:06:42.306Z,9.82
2023-01-10T06:09:06.197Z,8.52
2023-01-10T06:11:30.272Z,12.93
2023-01-10T06:13:55.827Z,8.20
2023-01-10T06:16:19.459Z,9.90
2023-01-10T06:18:43.011Z,7.97
2023-01-10T06:21:07.139Z,9.38
2023-01-10T06:23:32.156Z,8.63
2023-01-10T06:25:55.758Z,27.80
2023-01-10T06:28:19.267Z,12.45
2023-01-10T06:30:44.360Z,8.65
2023-01-10T06:33:09.446Z,13.27
2023-01-10T06:35:33.823Z,16.52
2023-01-10T06:37:57.362Z,8.15
2023-01-10T06:40:22.431Z,13.38
2023-01-10T06:42:45.936Z,10.98
2023-01-10T06:45:11.072Z,10.77
2023-01-10T06:47:34.642Z,11.73
2023-01-10T06:49:58.212Z,10.48
2023-01-10T06:52:21.765Z,9.00
2023-01-10T06:54:45.352Z,9.75
2023-01-10T06:57:10.913Z,10.98
2023-01-10T06:59:34.631Z,20.92
2023-01-10T07:01:58.293Z,30.67
2023-01-10T07:04:22.012Z,17.67
2023-01-10T07:06:45.630Z,40.05
2023-01-10T07:09:09.816Z,10.52
2023-01-10T07:11:34.446Z,54.85
2023-01-10T07:13:59.612Z,17.15
2023-01-10T07:16:23.287Z,12.20
2023-01-10T07:18:46.950Z,24.73
2023-01-10T07:21:12.103Z,24.77
2023-01-10T07:23:36.372Z,13.20
2023-01-10T07:26:00.166Z,12.82
2023-01-10T07:28:23.775Z,9.43
2023-01-10T07:30:48.902Z,17.13
2023-01-10T07:33:12.601Z,11.68
2023-01-10T07:35:36.153Z,15.68
2023-01-10T07:38:00.576Z,10.57
2023-01-10T07:40:24.141Z,13.60
2023-01-10T07:42:47.745Z,12.82
2023-01-10T07:45:12.590Z,15.40
2023-01-10T07:47:37.641Z,17.45
2023-01-10T07:50:01.197Z,17.55
2023-01-10T07:52:24.772Z,11.95
2023-01-10T07:54:48.290Z,15.17
2023-01-10T07:57:11.900Z,25.70
2023-01-10T07:59:35.412Z,23.58
2023-01-10T08:01:59.006Z,12.48
2023-01-10T08:04:23.916Z,12.30
2023-01-10T08:06:47.862Z,9.95
2023-01-10T08:09:11.396Z,10.47
2023-01-10T08:11:34.978Z,9.85
2023-01-10T08:13:58.544Z,10.95
2023-01-10T08:16:22.183Z,12.52
2023-01-10T08:18:45.734Z,10.70
2023-01-10T08:21:11.372Z,9.00
2023-01-10T08:23:35.229Z,9.93
2023-01-10T08:26:00.550Z,10.65
2023-01-10T08:28:24.075Z,11.15
2023-01-10T08:30:50.318Z,11.07
2023-01-10T08:33:14.164Z,10.52
2023-01-10T08:35:42.969Z,11.05
2023-01-10T08:38:08.517Z,11.65
2023-01-10T08:40:32.123Z,10.63
2023-01-10T08:43:00.180Z,9.60
2023-01-10T08:45:23.740Z,9.27
2023-01-10T08:47:49.895Z,10.15
2023-01-10T08:50:13.502Z,9.73
2023-01-10T08:52:37.007Z,10.10
2023-01-10T08:55:02.068Z,9.45
2023-01-10T08:57:25.606Z,9.77
2023-01-10T08:59:49.185Z,9.00
2023-01-10T09:02:15.215Z,9.88
2023-01-10T09:04:38.854Z,9.30
2023-01-10T09:07:02.395Z,9.57
2023-01-10T09:09:26.089Z,9.45
2023-01-10T09:11:51.035Z,8.73
2023-01-10T09:14:14.839Z,9.03
2023-01-10T09:16:38.357Z,8.30
2023-01-10T09:19:02.022Z,8.52
2023-01-10T09:21:25.540Z,8.35
2023-01-10T09:23:49.202Z,7.72
2023-01-10T09:26:12.880Z,8.13
2023-01-10T09:28:38.004Z,8.73
2023-01-10T09:31:04.296Z,8.02
2023-01-10T09:33:32.258Z,8.05
2023-01-10T09:36:11.008Z,8.40
2023-01-10T09:38:34.547Z,7.57
2023-01-10T09:41:18.504Z,7.85
2023-01-10T09:43:56.154Z,8.10
2023-01-10T09:46:28.352Z,7.28
2023-01-10T09:49:02.927Z,7.50
2023-01-10T09:51:36.639Z,7.22
2023-01-10T09:54:12.073Z,6.55
2023-01-10T09:56:37.964Z,7.13
2023-01-10T09:59:04.189Z,7.32
2023-01-10T10:01:36.268Z,7.32
2023-01-10T10:04:13.230Z,7.28
2023-01-10T10:06:36.915Z,6.95
2023-01-10T10:09:00.465Z,6.90
2023-01-10T10:11:45.735Z,6.43
2023-01-10T10:14:24.952Z,7.80
2023-01-10T10:17:10.800Z,7.28
2023-01-10T10:19:51.883Z,7.57
2023-01-10T10:22:24.890Z,7.20
2023-01-10T10:25:00.818Z,6.65
2023-01-10T10:27:30.619Z,6.75
2023-01-10T10:30:16.825Z,6.97
2023-01-10T10:33:03.632Z,6.15
2023-01-10T10:35:31.862Z,6.40
2023-01-10T10:38:00.200Z,5.20
2023-01-10T10:40:26.628Z,5.35
2023-01-10T10:42:54.308Z,6.68
2023-01-10T10:45:25.564Z,6.55
2023-01-10T10:47:57.425Z,5.50
2023-01-10T10:50:32.281Z,5.15
2023-01-10T10:52:56.177Z,5.13
2023-01-10T10:55:26.571Z,4.97
2023-01-10T10:57:59.854Z,5.80
2023-01-10T11:00:26.554Z,5.22
2023-01-10T11:02:55.799Z,4.88
2023-01-10T11:05:27.539Z,5.53
2023-01-10T11:07:53.500Z,5.00
2023-01-10T11:10:36.021Z,5.20
2023-01-10T11:13:03.723Z,5.25
2023-01-10T11:15:41.384Z,5.20
2023-01-10T11:18:07.678Z,5.13
2023-01-10T11:20:31.399Z,5.40
2023-01-10T11:22:55.256Z,5.15
2023-01-10T11:25:22.157Z,4.07
2023-01-10T11:27:50.451Z,4.72
2023-01-10T11:30:23.157Z,4.03
2023-01-10T11:32:55.073Z,4.10
2023-01-10T11:35:23.655Z,4.55
2023-01-10T11:38:01.338Z,4.40
2023-01-10T11:40:27.583Z,4.25
2023-01-10T11:42:54.781Z,4.18
2023-01-10T11:45:31.891Z,3.85
2023-01-10T11:48:01.465Z,4.63
2023-01-10T11:50:28.634Z,3.85
2023-01-10T11:52:53.249Z,3.90
2023-01-10T11:55:21.656Z,3.80
2023-01-10T11:57:46.672Z,4.65
2023-01-10T12:00:12.727Z,4.10
2023-01-10T12:02:38.120Z,3.72
2023-01-10T12:05:07.254Z,4.03
2023-01-10T12:07:30.970Z,4.20
2023-01-10T12:09:59.505Z,4.00
2023-01-10T12:12:25.517Z,3.78
2023-01-10T12:14:50.085Z,4.07
2023-01-10T12:17:24.489Z,4.00
2023-01-10T12:19:48.174Z,3.78
2023-01-10T12:22:16.512Z,3.78
2023-01-10T12:24:44.875Z,4.13
2023-01-10T12:27:12.595Z,4.18
2023-01-10T12:29:42.497Z,4.00
2023-01-10T12:32:09.058Z,4.05
2023-01-10T12:34:41.778Z,3.95
2023-01-10T12:37:18.055Z,3.97
2023-01-10T12:39:46.591Z,3.85
2023-01-10T12:42:42.907Z,3.85
2023-01-10T12:45:13.396Z,3.90
2023-01-10T12:47:54.488Z,4.13
2023-01-10T12:50:25.094Z,3.72
2023-01-10T12:52:56.365Z,3.85
2023-01-10T12:55:22.292Z,3.85
2023-01-10T12:57:51.927Z,3.72
2023-01-10T13:00:25.424Z,3.92
2023-01-10T13:02:52.434Z,4.07
2023-01-10T13:05:20.896Z,3.78
2023-01-10T13:07:45.191Z,3.80
2023-01-10T13:10:17.295Z,3.80
2023-01-10T13:12:45.626Z,3.40
2023-01-10T13:15:18.889Z,3.58
2023-01-10T13:17:47.420Z,3.25
2023-01-10T13:20:38.550Z,4.55
2023-01-10T13:23:02.959Z,3.70
2023-01-10T13:25:30.510Z,3.60
2023-01-10T13:27:59.124Z,3.78
2023-01-10T13:30:30.467Z,3.83
2023-01-10T13:33:05.338Z,3.35
2023-01-10T13:35:29.510Z,3.60
2023-01-10T13:37:56.459Z,3.92
2023-01-10T13:40:27.433Z,4.22
2023-01-10T13:43:38.883Z,3.85
2023-01-10T13:46:38.693Z,3.85
2023-01-10T13:49:43.007Z,4.22
2023-01-10T13:52:41.154Z,4.43
2023-01-10T13:55:36.280Z,4.70
2023-01-10T13:58:02.088Z,4.15
2023-01-10T14:01:04.657Z,4.43
2023-01-10T14:03:54.402Z,3.70
2023-01-10T14:06:37.897Z,4.80
2023-01-10T14:09:05.392Z,4.53
2023-01-10T14:11:32.167Z,4.05
2023-01-10T14:13:58.633Z,4.50
2023-01-10T14:16:49.145Z,4.10
2023-01-10T14:19:28.375Z,4.45
2023-01-10T14:21:56.131Z,4.55
2023-01-10T14:24:27.410Z,4.38
2023-01-10T14:26:52.355Z,4.60
2023-01-10T14:29:18.998Z,4.78
2023-01-10T14:31:48.888Z,4.22
2023-01-10T14:34:20.946Z,4.70
2023-01-10T14:36:51.486Z,4.70
2023-01-10T14:39:17.070Z,4.15
2023-01-10T14:41:44.194Z,4.75
2023-01-10T14:44:13.845Z,4.38
2023-01-10T14:46:48.812Z,5.00
2023-01-10T14:49:25.945Z,4.75
2023-01-10T14:51:50.667Z,5.60
2023-01-10T14:54:15.908Z,5.38
2023-01-10T14:56:41.589Z,5.45
2023-01-10T14:59:19.281Z,6.03
2023-01-10T15:01:43.213Z,5.45
2023-01-10T15:04:14.660Z,5.25
2023-01-10T15:06:54.355Z,5.43
2023-01-10T15:09:18.172Z,5.18
2023-01-10T15:11:41.838Z,5.93
2023-01-10T15:14:10.897Z,5.63
2023-01-10T15:16:37.071Z,5.80
2023-01-10T15:19:01.030Z,5.47
2023-01-10T15:21:26.262Z,6.07
2023-01-10T15:23:50.388Z,5.10
2023-01-10T15:26:17.937Z,6.45
2023-01-10T15:28:41.924Z,5.95
2023-01-10T15:31:07.298Z,6.20
2023-01-10T15:33:33.955Z,5.63
2023-01-10T15:35:58.495Z,6.40
2023-01-10T15:38:30.325Z,6.05
2023-01-10T15:40:58.694Z,6.82
2023-01-10T15:43:29.142Z,6.75
2023-01-10T15:45:55.546Z,5.82
2023-01-10T15:48:34.898Z,6.75
2023-01-10T15:51:03.676Z,5.95
2023-01-10T15:53:57.898Z,6.10
2023-01-10T15:56:28.262Z,6.55
2023-01-10T15:58:52.005Z,6.50
2023-01-10T16:01:17.226Z,6.55
2023-01-10T16:03:46.181Z,6.45
2023-01-10T16:06:23.547Z,6.37
2023-01-10T16:08:53.356Z,6.45
2023-01-10T16:11:37.896Z,5.97
2023-01-10T16:14:01.499Z,5.57
2023-01-10T16:16:25.096Z,6.00
2023-01-10T16:18:48.714Z,6.47
2023-01-10T16:21:14.455Z,6.03
2023-01-10T16:23:38.622Z,6.55
2023-01-10T16:26:08.488Z,6.40
2023-01-10T16:28:36.212Z,6.25
2023-01-10T16:30:59.848Z,6.65
2023-01-10T16:33:27.844Z,6.70
2023-01-10T16:35:53.235Z,6.50
2023-01-10T16:38:17.797Z,6.47
2023-01-10T16:40:44.162Z,6.65
2023-01-10T16:43:21.814Z,6.15
2023-01-10T16:45:46.031Z,6.57
2023-01-10T16:48:10.322Z,6.00
2023-01-10T16:50:34.075Z,5.65
2023-01-10T16:52:57.675Z,6.03
2023-01-10T16:55:26.744Z,5.53
2023-01-10T16:57:51.700Z,5.38
2023-01-10T17:00:18.783Z,6.20
2023-01-10T17:02:44.011Z,5.45
2023-01-10T17:05:08.647Z,5.43
2023-01-10T17:07:32.252Z,5.40
2023-01-10T17:09:57.658Z,5.35
2023-01-10T17:12:21.254Z,5.63
2023-01-10T17:14:44.879Z,6.05
2023-01-10T17:17:12.370Z,5.60
2023-01-10T17:19:37.154Z,5.45
2023-01-10T17:22:01.322Z,5.72
2023-01-10T17:24:25.057Z,4.97
2023-01-10T17:26:48.953Z,5.40
2023-01-10T17:29:12.580Z,4.83
2023-01-10T17:31:36.154Z,4.90
2023-01-10T17:34:01.282Z,4.55
2023-01-10T17:36:29.086Z,5.85
2023-01-10T17:38:52.664Z,5.07
2023-01-10T17:41:16.205Z,5.75
2023-01-10T17:43:40.723Z,5.05
2023-01-10T17:46:06.720Z,4.97
2023-01-10T17:48:30.369Z,5.20
2023-01-10T17:51:01.001Z,5.60
2023-01-10T17:53:25.188Z,5.30
2023-01-10T17:55:50.188Z,5.03
2023-01-10T17:58:14.118Z,5.50
2023-01-10T18:00:37.732Z,5.43
2023-01-10T18:03:01.360Z,5.20
2023-01-10T18:05:24.996Z,5.67
2023-01-10T18:07:49.973Z,5.13
2023-01-10T18:10:13.860Z,5.05
2023-01-10T18:12:38.081Z,5.17
2023-01-10T18:15:01.666Z,4.60
2023-01-10T18:17:25.248Z,4.90
2023-01-10T18:19:48.941Z,5.43
2023-01-10T18:22:27.419Z,5.22
2023-01-10T18:24:54.689Z,5.07
2023-01-10T18:27:18.239Z,5.07
2023-01-10T18:29:42.274Z,5.07
2023-01-10T18:32:06.111Z,5.60
2023-01-10T18:34:29.656Z,5.82
2023-01-10T18:36:53.196Z,6.40
2023-01-10T18:39:16.850Z,7.65
2023-01-10T18:41:41.767Z,6.47
2023-01-10T18:44:05.537Z,6.00
2023-01-10T18:46:30.146Z,6.53
2023-01-10T18:48:54.477Z,9.37
2023-01-10T18:51:19.199Z,12.88
2023-01-10T18:53:44.023Z,14.65
2023-01-10T18:56:08.815Z,10.18
2023-01-10T18:58:36.749Z,8.00
2023-01-10T19:01:06.115Z,15.93
2023-01-10T19:03:29.903Z,13.17
2023-01-10T19:05:53.547Z,20.00
2023-01-10T19:08:17.400Z,18.50
2023-01-10T19:11:03.591Z,13.00
2023-01-10T19:13:27.434Z,7.80
2023-01-10T19:15:53.056Z,8.00
2023-01-10T19:18:17.037Z,6.63
2023-01-10T19:20:40.637Z,5.60
2023-01-10T19:23:04.197Z,8.03
2023-01-10T19:25:28.256Z,11.20
2023-01-10T19:27:51.863Z,6.30
2023-01-10T19:30:15.874Z,10.10
2023-01-10T19:32:41.109Z,9.25
2023-01-10T19:35:04.752Z,9.35
2023-01-10T19:37:28.386Z,14.00
2023-01-10T19:39:51.926Z,13.20
2023-01-10T19:42:15.524Z,10.23
2023-01-10T19:44:39.083Z,8.03
2023-01-10T19:47:02.822Z,10.80
2023-01-10T19:49:30.850Z,12.03
2023-01-10T19:51:56.147Z,17.57
2023-01-10T19:54:20.192Z,12.67
2023-01-10T19:56:43.825Z,10.27
2023-01-10T19:59:08.571Z,8.90
2023-01-10T20:01:33.229Z,14.70
2023-01-10T20:04:01.365Z,12.83
2023-01-10T20:06:29.304Z,12.13
2023-01-10T20:08:54.096Z,10.23
2023-01-10T20:11:18.840Z,9.53
2023-01-10T20:13:45.293Z,8.10
2023-01-10T20:16:09.714Z,9.90
2023-01-10T20:18:33.482Z,8.93
2023-01-10T20:20:57.446Z,14.97
2023-01-10T20:23:23.489Z,10.07
2023-01-10T20:25:58.187Z,9.30
2023-01-10T20:28:21.768Z,9.50
2023-01-10T20:30:45.294Z,9.13
2023-01-10T20:33:08.849Z,7.63
2023-01-10T20:35:32.426Z,10.33
2023-01-10T20:37:56.111Z,9.23
2023-01-10T20:40:22.955Z,6.27
2023-01-10T20:42:51.198Z,8.83
2023-01-10T20:45:14.853Z,8.90
2023-01-10T20:47:38.479Z,7.43
2023-01-10T20:50:02.082Z,7.97
2023-01-10T20:52:25.726Z,11.53
2023-01-10T20:54:49.297Z,11.37
2023-01-10T20:57:14.304Z,21.33
2023-01-10T20:59:37.837Z,14.73
2023-01-10T21:02:02.322Z,12.77
2023-01-10T21:04:25.879Z,9.30
2023-01-10T21:06:49.463Z,6.60
2023-01-10T21:09:16.628Z,5.77
2023-01-10T21:11:56.679Z,6.30
2023-01-10T21:14:25.227Z,5.70
2023-01-10T21:16:49.409Z,5.40
2023-01-10T21:19:13.673Z,6.40
2023-01-10T21:21:38.441Z,6.00
2023-01-10T21:24:02.065Z,5.17
2023-01-10T21:26:25.671Z,5.67
2023-01-10T21:28:49.335Z,4.83
2023-01-10T21:31:15.775Z,4.63
2023-01-10T21:33:39.638Z,4.57
2023-01-10T21:36:03.293Z,4.70
2023-01-10T21:38:28.497Z,4.37
2023-01-10T21:40:52.092Z,3.77
2023-01-10T21:43:15.763Z,5.30
2023-01-10T21:45:39.335Z,4.60
2023-01-10T21:48:04.721Z,4.67
2023-01-10T21:50:33.743Z,4.47
2023-01-10T21:52:57.706Z,4.63
2023-01-10T21:55:21.964Z,4.43
2023-01-10T21:57:45.677Z,4.37
2023-01-10T22:00:11.365Z,4.23
2023-01-10T22:02:37.967Z,4.70
2023-01-10T22:05:03.001Z,4.50
2023-01-10T22:07:29.021Z,4.50
2023-01-10T22:09:53.120Z,4.70
2023-01-10T22:12:16.720Z,4.00
2023-01-10T22:14:40.250Z,4.13
2023-01-10T22:17:04.358Z,4.23
2023-01-10T22:19:28.025Z,4.50
2023-01-10T22:21:53.229Z,4.43
2023-01-10T22:24:17.311Z,4.63
2023-01-10T22:26:41.073Z,4.13
2023-01-10T22:29:05.066Z,4.47
2023-01-10T22:31:28.633Z,4.27
2023-01-10T22:33:52.164Z,4.30
2023-01-10T22:36:18.989Z,3.90
2023-01-10T22:38:44.180Z,4.43
2023-01-10T22:41:08.530Z,3.90
2023-01-10T22:43:32.072Z,3.80
2023-01-10T22:45:55.898Z,4.23
2023-01-10T22:48:19.515Z,4.17
2023-01-10T22:50:50.079Z,4.17
2023-01-10T22:53:13.691Z,4.37
2023-01-10T22:55:38.579Z,4.43
2023-01-10T22:58:02.180Z,4.30
2023-01-10T23:00:25.931Z,3.87
2023-01-10T23:02:49.607Z,4.30
2023-01-10T23:05:13.201Z,3.40
2023-01-10T23:07:36.764Z,3.37
2023-01-10T23:10:00.290Z,3.83
2023-01-10T23:12:25.286Z,3.97
2023-01-10T23:14:48.813Z,3.67
2023-01-10T23:17:12.435Z,3.70
2023-01-10T23:19:36.006Z,3.70
2023-01-10T23:21:59.616Z,3.40
2023-01-10T23:24:23.227Z,3.87
2023-01-10T23:26:46.831Z,4.27
2023-01-10T23:29:11.784Z,3.53
2023-01-10T23:31:35.518Z,3.50
2023-01-10T23:33:59.191Z,3.47
2023-01-10T23:36:23.887Z,3.13
2023-01-10T23:38:47.552Z,3.63
2023-01-10T23:41:11.507Z,3.70
2023-01-10T23:43:35.066Z,3.63
2023-01-10T23:46:02.232Z,3.77
2023-01-10T23:48:25.897Z,3.63
2023-01-10T23:50:50.302Z,3.20
2023-01-10T23:53:13.911Z,3.63
2023-01-10T23:55:37.691Z,4.03
2023-01-10T23:58:01.619Z,3.53
